sensor_id;sensor_type;location;lat;lon;timestamp;temperature;humidity
3298;DHT22;1661;53.572;10.174;2024-01-15T00:01:21;2.60;92.30
3298;DHT22;1661;53.572;10.174;2024-01-15T00:03:48;2.60;92.40
3298;DHT22;1661;53.572;10.174;2024-01-15T00:06:14;2.70;92.30
3298;DHT22;1661;53.572;10.174;2024-01-15T00:08:41;2.70;92.40
3298;DHT22;1661;53.572;10.174;2024-01-15T00:11:12;2.70;92.20
3298;DHT22;1661;53.572;10.174;2024-01-15T00:13:38;2.70;92.30
3298;DHT22;1661;53.572;10.174;2024-01-15T00:16:06;2.70;92.30
3298;DHT22;1661;53.572;10.174;2024-01-15T00:18:32;2.60;92.10
3298;DHT22;1661;53.572;10.174;2024-01-15T00:20:59;2.60;92.10
3298;DHT22;1661;53.572;10.174;2024-01-15T00:23:26;2.60;92.20
3298;DHT22;1661;53.572;10.174;2024-01-15T00:25:53;2.70;92.20
3298;DHT22;1661;53.572;10.174;2024-01-15T00:28:23;2.60;92.10
3298;DHT22;1661;53.572;10.174;2024-01-15T00:30:50;2.60;92.30
3298;DHT22;1661;53.572;10.174;2024-01-15T00:33:17;2.50;92.90
3298;DHT22;1661;53.572;10.174;2024-01-15T00:35:43;2.60;93.10
3298;DHT22;1661;53.572;10.174;2024-01-15T00:38:10;2.50;93.20
3298;DHT22;1661;53.572;10.174;2024-01-15T00:40:37;2.50;93.60
3298;DHT22;1661;53.572;10.174;2024-01-15T00:43:04;2.30;93.80
3298;DHT22;1661;53.572;10.174;2024-01-15T00:45:34;2.40;94.00
3298;DHT22;1661;53.572;10.174;2024-01-15T00:48:01;2.40;94.10
3298;DHT22;1661;53.572;10.174;2024-01-15T00:50:27;2.40;93.90
3298;DHT22;1661;53.572;10.174;2024-01-15T00:52:54;2.40;93.80
3298;DHT22;1661;53.572;10.174;2024-01-15T00:55:21;2.40;93.70
3298;DHT22;1661;53.572;10.174;2024-01-15T00:57:48;2.50;93.80
3298;DHT22;1661;53.572;10.174;2024-01-15T01:00:15;2.50;93.60
3298;DHT22;1661;53.572;10.174;2024-01-15T01:02:46;2.40;93.80
3298;DHT22;1661;53.572;10.174;2024-01-15T01:05:12;2.40;94.10
3298;DHT22;1661;53.572;10.174;2024-01-15T01:07:39;2.30;94.50
3298;DHT22;1661;53.572;10.174;2024-01-15T01:10:06;2.40;94.40
3298;DHT22;1661;53.572;10.174;2024-01-15T01:12:36;2.40;94.30
3298;DHT22;1661;53.572;10.174;2024-01-15T01:15:03;2.40;93.90
3298;DHT22;1661;53.572;10.174;2024-01-15T01:17:33;2.30;94.10
3298;DHT22;1661;53.572;10.174;2024-01-15T01:20:01;2.40;94.10
3298;DHT22;1661;53.572;10.174;2024-01-15T01:22:44;2.40;94.20
3298;DHT22;1661;53.572;10.174;2024-01-15T01:25:10;2.40;94.10
3298;DHT22;1661;53.572;10.174;2024-01-15T01:27:37;2.40;94.00
3298;DHT22;1661;53.572;10.174;2024-01-15T01:30:05;2.40;93.80
3298;DHT22;1661;53.572;10.174;2024-01-15T01:32:32;2.40;93.70
3298;DHT22;1661;53.572;10.174;2024-01-15T01:35:01;2.40;93.90
3298;DHT22;1661;53.572;10.174;2024-01-15T01:37:27;2.40;93.80
3298;DHT22;1661;53.572;10.174;2024-01-15T01:39:55;2.40;93.80
3298;DHT22;1661;53.572;10.174;2024-01-15T01:42:22;2.40;94.20
3298;DHT22;1661;53.572;10.174;2024-01-15T01:44:49;2.40;94.30
3298;DHT22;1661;53.572;10.174;2024-01-15T01:47:15;2.40;94.20
3298;DHT22;1661;53.572;10.174;2024-01-15T01:49:42;2.40;94.40
3298;DHT22;1661;53.572;10.174;2024-01-15T01:52:18;2.30;94.90
3298;DHT22;1661;53.572;10.174;2024-01-15T01:54:45;2.40;95.00
3298;DHT22;1661;53.572;10.174;2024-01-15T01:57:15;2.40;94.80
3298;DHT22;1661;53.572;10.174;2024-01-15T01:59:43;2.40;94.90
3298;DHT22;1661;53.572;10.174;2024-01-15T02:02:11;2.40;94.90
3298;DHT22;1661;53.572;10.174;2024-01-15T02:04:38;2.50;94.50
3298;DHT22;1661;53.572;10.174;2024-01-15T02:07:08;2.50;94.90
3298;DHT22;1661;53.572;10.174;2024-01-15T02:09:37;2.50;94.70
3298;DHT22;1661;53.572;10.174;2024-01-15T02:12:04;2.40;94.90
3298;DHT22;1661;53.572;10.174;2024-01-15T02:14:34;2.50;95.30
3298;DHT22;1661;53.572;10.174;2024-01-15T02:17:01;2.50;95.00
3298;DHT22;1661;53.572;10.174;2024-01-15T02:19:30;2.50;94.90
3298;DHT22;1661;53.572;10.174;2024-01-15T02:21:59;2.50;94.90
3298;DHT22;1661;53.572;10.174;2024-01-15T02:24:27;2.50;94.80
3298;DHT22;1661;53.572;10.174;2024-01-15T02:26:54;2.40;94.90
3298;DHT22;1661;53.572;10.174;2024-01-15T02:29:24;2.50;95.00
3298;DHT22;1661;53.572;10.174;2024-01-15T02:31:51;2.50;94.90
3298;DHT22;1661;53.572;10.174;2024-01-15T02:34:17;2.60;94.80
3298;DHT22;1661;53.572;10.174;2024-01-15T02:36:44;2.60;94.50
3298;DHT22;1661;53.572;10.174;2024-01-15T02:39:17;2.40;94.50
3298;DHT22;1661;53.572;10.174;2024-01-15T02:41:45;2.50;94.80
3298;DHT22;1661;53.572;10.174;2024-01-15T02:44:11;2.40;94.50
3298;DHT22;1661;53.572;10.174;2024-01-15T02:46:38;2.40;94.80
3298;DHT22;1661;53.572;10.174;2024-01-15T02:49:05;2.40;94.90
3298;DHT22;1661;53.572;10.174;2024-01-15T02:51:32;2.50;94.90
3298;DHT22;1661;53.572;10.174;2024-01-15T02:53:58;2.50;94.90
3298;DHT22;1661;53.572;10.174;2024-01-15T02:56:25;2.60;94.80
3298;DHT22;1661;53.572;10.174;2024-01-15T02:58:52;2.70;94.70
3298;DHT22;1661;53.572;10.174;2024-01-15T03:01:19;2.80;94.60
3298;DHT22;1661;53.572;10.174;2024-01-15T03:03:46;2.80;94.10
3298;DHT22;1661;53.572;10.174;2024-01-15T03:06:13;2.80;93.90
3298;DHT22;1661;53.572;10.174;2024-01-15T03:08:39;2.80;94.20
3298;DHT22;1661;53.572;10.174;2024-01-15T03:11:06;2.70;94.50
3298;DHT22;1661;53.572;10.174;2024-01-15T03:13:35;2.60;94.70
3298;DHT22;1661;53.572;10.174;2024-01-15T03:16:04;2.60;94.70
3298;DHT22;1661;53.572;10.174;2024-01-15T03:18:31;2.60;94.80
3298;DHT22;1661;53.572;10.174;2024-01-15T03:21:00;2.70;94.80
3298;DHT22;1661;53.572;10.174;2024-01-15T03:23:27;2.70;94.70
3298;DHT22;1661;53.572;10.174;2024-01-15T03:25:54;2.80;94.70
3298;DHT22;1661;53.572;10.174;2024-01-15T03:28:21;2.70;94.50
3298;DHT22;1661;53.572;10.174;2024-01-15T03:30:47;2.70;94.60
3298;DHT22;1661;53.572;10.174;2024-01-15T03:33:18;2.80;94.70
3298;DHT22;1661;53.572;10.174;2024-01-15T03:35:45;2.80;94.60
3298;DHT22;1661;53.572;10.174;2024-01-15T03:38:11;2.90;94.40
3298;DHT22;1661;53.572;10.174;2024-01-15T03:40:41;3.00;93.90
3298;DHT22;1661;53.572;10.174;2024-01-15T03:43:08;3.00;93.80
3298;DHT22;1661;53.572;10.174;2024-01-15T03:45:40;3.00;93.50
3298;DHT22;1661;53.572;10.174;2024-01-15T03:48:07;3.10;93.40
3298;DHT22;1661;53.572;10.174;2024-01-15T03:50:35;3.10;93.20
3298;DHT22;1661;53.572;10.174;2024-01-15T03:53:02;3.10;93.00
3298;DHT22;1661;53.572;10.174;2024-01-15T03:55:29;3.10;92.90
3298;DHT22;1661;53.572;10.174;2024-01-15T03:57:58;3.10;92.80
3298;DHT22;1661;53.572;10.174;2024-01-15T04:00:24;3.10;92.90
3298;DHT22;1661;53.572;10.174;2024-01-15T04:02:51;3.10;92.60
3298;DHT22;1661;53.572;10.174;2024-01-15T04:05:19;3.10;92.40
3298;DHT22;1661;53.572;10.174;2024-01-15T04:07:47;3.00;92.60
3298;DHT22;1661;53.572;10.174;2024-01-15T04:10:14;3.10;92.60
3298;DHT22;1661;53.572;10.174;2024-01-15T04:12:41;3.10;92.60
3298;DHT22;1661;53.572;10.174;2024-01-15T04:15:08;3.00;92.30
3298;DHT22;1661;53.572;10.174;2024-01-15T04:17:35;3.00;92.40
3298;DHT22;1661;53.572;10.174;2024-01-15T04:20:02;3.00;92.40
3298;DHT22;1661;53.572;10.174;2024-01-15T04:22:28;3.00;92.40
3298;DHT22;1661;53.572;10.174;2024-01-15T04:24:57;2.90;92.40
3298;DHT22;1661;53.572;10.174;2024-01-15T04:27:23;3.00;92.40
3298;DHT22;1661;53.572;10.174;2024-01-15T04:29:50;2.90;92.30
3298;DHT22;1661;53.572;10.174;2024-01-15T04:32:17;2.90;92.10
3298;DHT22;1661;53.572;10.174;2024-01-15T04:34:44;3.00;92.20
3298;DHT22;1661;53.572;10.174;2024-01-15T04:37:10;3.00;92.00
3298;DHT22;1661;53.572;10.174;2024-01-15T04:39:37;3.00;91.80
3298;DHT22;1661;53.572;10.174;2024-01-15T04:42:05;3.10;91.50
3298;DHT22;1661;53.572;10.174;2024-01-15T04:44:32;3.00;91.30
3298;DHT22;1661;53.572;10.174;2024-01-15T04:46:59;3.10;91.00
3298;DHT22;1661;53.572;10.174;2024-01-15T04:49:26;3.00;90.80
3298;DHT22;1661;53.572;10.174;2024-01-15T04:51:54;3.00;90.80
3298;DHT22;1661;53.572;10.174;2024-01-15T04:54:21;3.00;90.90
3298;DHT22;1661;53.572;10.174;2024-01-15T04:56:48;3.00;91.00
3298;DHT22;1661;53.572;10.174;2024-01-15T04:59:16;3.00;91.00
3298;DHT22;1661;53.572;10.174;2024-01-15T05:01:43;3.00;91.00
3298;DHT22;1661;53.572;10.174;2024-01-15T05:04:10;3.10;90.90
3298;DHT22;1661;53.572;10.174;2024-01-15T05:06:37;3.20;90.50
3298;DHT22;1661;53.572;10.174;2024-01-15T05:09:05;3.30;90.20
3298;DHT22;1661;53.572;10.174;2024-01-15T05:11:32;3.30;90.00
3298;DHT22;1661;53.572;10.174;2024-01-15T05:13:59;3.30;89.90
3298;DHT22;1661;53.572;10.174;2024-01-15T05:16:27;3.30;89.70
3298;DHT22;1661;53.572;10.174;2024-01-15T05:18:54;3.30;89.60
3298;DHT22;1661;53.572;10.174;2024-01-15T05:21:20;3.30;89.70
3298;DHT22;1661;53.572;10.174;2024-01-15T05:23:50;3.30;89.70
3298;DHT22;1661;53.572;10.174;2024-01-15T05:26:17;3.30;89.60
3298;DHT22;1661;53.572;10.174;2024-01-15T05:28:44;3.30;89.50
3298;DHT22;1661;53.572;10.174;2024-01-15T05:31:11;3.40;89.30
3298;DHT22;1661;53.572;10.174;2024-01-15T05:33:39;3.30;89.00
3298;DHT22;1661;53.572;10.174;2024-01-15T05:36:06;3.30;89.00
3298;DHT22;1661;53.572;10.174;2024-01-15T05:38:33;3.30;89.00
3298;DHT22;1661;53.572;10.174;2024-01-15T05:40:59;3.20;88.90
3298;DHT22;1661;53.572;10.174;2024-01-15T05:43:26;3.20;89.00
3298;DHT22;1661;53.572;10.174;2024-01-15T05:45:53;3.10;89.20
3298;DHT22;1661;53.572;10.174;2024-01-15T05:48:20;3.10;89.50
3298;DHT22;1661;53.572;10.174;2024-01-15T05:50:48;3.10;89.60
3298;DHT22;1661;53.572;10.174;2024-01-15T05:53:14;3.10;89.80
3298;DHT22;1661;53.572;10.174;2024-01-15T05:55:41;3.00;90.10
3298;DHT22;1661;53.572;10.174;2024-01-15T05:58:08;3.00;90.50
3298;DHT22;1661;53.572;10.174;2024-01-15T06:00:35;3.00;90.70
3298;DHT22;1661;53.572;10.174;2024-01-15T06:03:04;3.00;90.80
3298;DHT22;1661;53.572;10.174;2024-01-15T06:05:30;3.00;90.80
3298;DHT22;1661;53.572;10.174;2024-01-15T06:07:58;3.00;90.90
3298;DHT22;1661;53.572;10.174;2024-01-15T06:10:25;3.00;90.90
3298;DHT22;1661;53.572;10.174;2024-01-15T06:12:52;3.00;90.80
3298;DHT22;1661;53.572;10.174;2024-01-15T06:15:19;3.00;90.90
3298;DHT22;1661;53.572;10.174;2024-01-15T06:17:45;3.10;90.80
3298;DHT22;1661;53.572;10.174;2024-01-15T06:20:13;3.00;90.90
3298;DHT22;1661;53.572;10.174;2024-01-15T06:22:40;3.00;90.90
3298;DHT22;1661;53.572;10.174;2024-01-15T06:25:08;3.00;91.00
3298;DHT22;1661;53.572;10.174;2024-01-15T06:27:35;3.00;91.00
3298;DHT22;1661;53.572;10.174;2024-01-15T06:30:05;3.00;91.10
3298;DHT22;1661;53.572;10.174;2024-01-15T06:32:34;3.00;90.90
3298;DHT22;1661;53.572;10.174;2024-01-15T06:35:01;3.00;91.10
3298;DHT22;1661;53.572;10.174;2024-01-15T06:37:28;3.00;91.20
3298;DHT22;1661;53.572;10.174;2024-01-15T06:39:55;3.10;91.10
3298;DHT22;1661;53.572;10.174;2024-01-15T06:42:24;3.10;91.00
3298;DHT22;1661;53.572;10.174;2024-01-15T06:44:51;3.20;91.10
3298;DHT22;1661;53.572;10.174;2024-01-15T06:47:18;3.20;90.90
3298;DHT22;1661;53.572;10.174;2024-01-15T06:49:44;3.10;90.70
3298;DHT22;1661;53.572;10.174;2024-01-15T06:52:11;3.10;90.80
3298;DHT22;1661;53.572;10.174;2024-01-15T06:54:38;3.10;90.90
3298;DHT22;1661;53.572;10.174;2024-01-15T06:57:05;3.10;91.00
3298;DHT22;1661;53.572;10.174;2024-01-15T06:59:34;3.10;90.90
3298;DHT22;1661;53.572;10.174;2024-01-15T07:02:03;3.10;90.90
3298;DHT22;1661;53.572;10.174;2024-01-15T07:04:30;3.30;90.80
3298;DHT22;1661;53.572;10.174;2024-01-15T07:06:56;3.30;90.50
3298;DHT22;1661;53.572;10.174;2024-01-15T07:09:23;3.30;90.30
3298;DHT22;1661;53.572;10.174;2024-01-15T07:11:50;3.30;90.20
3298;DHT22;1661;53.572;10.174;2024-01-15T07:14:20;3.30;90.20
3298;DHT22;1661;53.572;10.174;2024-01-15T07:16:48;3.40;89.90
3298;DHT22;1661;53.572;10.174;2024-01-15T07:19:15;3.30;89.80
3298;DHT22;1661;53.572;10.174;2024-01-15T07:21:41;3.30;89.80
3298;DHT22;1661;53.572;10.174;2024-01-15T07:24:08;3.20;89.60
3298;DHT22;1661;53.572;10.174;2024-01-15T07:26:36;3.30;89.60
3298;DHT22;1661;53.572;10.174;2024-01-15T07:29:02;3.30;89.20
3298;DHT22;1661;53.572;10.174;2024-01-15T07:31:29;3.20;89.40
3298;DHT22;1661;53.572;10.174;2024-01-15T07:33:57;3.30;89.30
3298;DHT22;1661;53.572;10.174;2024-01-15T07:36:24;3.30;89.40
3298;DHT22;1661;53.572;10.174;2024-01-15T07:38:51;3.40;89.20
3298;DHT22;1661;53.572;10.174;2024-01-15T07:41:18;3.40;89.10
3298;DHT22;1661;53.572;10.174;2024-01-15T07:43:44;3.50;88.90
3298;DHT22;1661;53.572;10.174;2024-01-15T07:46:11;3.40;88.80
3298;DHT22;1661;53.572;10.174;2024-01-15T07:48:38;3.50;88.50
3298;DHT22;1661;53.572;10.174;2024-01-15T07:51:08;3.40;88.10
3298;DHT22;1661;53.572;10.174;2024-01-15T07:53:35;3.40;88.00
3298;DHT22;1661;53.572;10.174;2024-01-15T07:56:02;3.50;88.00
3298;DHT22;1661;53.572;10.174;2024-01-15T07:58:31;3.40;87.60
3298;DHT22;1661;53.572;10.174;2024-01-15T08:00:58;3.50;87.20
3298;DHT22;1661;53.572;10.174;2024-01-15T08:03:25;3.40;86.70
3298;DHT22;1661;53.572;10.174;2024-01-15T08:05:52;3.40;86.90
3298;DHT22;1661;53.572;10.174;2024-01-15T08:08:23;3.50;86.90
3298;DHT22;1661;53.572;10.174;2024-01-15T08:10:51;3.50;86.40
3298;DHT22;1661;53.572;10.174;2024-01-15T08:13:18;3.40;86.20
3298;DHT22;1661;53.572;10.174;2024-01-15T08:15:45;3.40;85.50
3298;DHT22;1661;53.572;10.174;2024-01-15T08:18:12;3.40;85.30
3298;DHT22;1661;53.572;10.174;2024-01-15T08:20:39;3.40;85.90
3298;DHT22;1661;53.572;10.174;2024-01-15T08:23:06;3.50;85.80
3298;DHT22;1661;53.572;10.174;2024-01-15T08:25:34;3.50;85.70
3298;DHT22;1661;53.572;10.174;2024-01-15T08:28:01;3.50;85.80
3298;DHT22;1661;53.572;10.174;2024-01-15T08:30:28;3.60;85.70
3298;DHT22;1661;53.572;10.174;2024-01-15T08:32:55;3.60;85.70
3298;DHT22;1661;53.572;10.174;2024-01-15T08:35:22;3.60;85.60
3298;DHT22;1661;53.572;10.174;2024-01-15T08:37:49;3.60;85.80
3298;DHT22;1661;53.572;10.174;2024-01-15T08:40:15;3.60;85.80
3298;DHT22;1661;53.572;10.174;2024-01-15T08:42:44;3.60;85.90
3298;DHT22;1661;53.572;10.174;2024-01-15T08:45:11;3.70;85.90
3298;DHT22;1661;53.572;10.174;2024-01-15T08:47:38;3.70;85.90
3298;DHT22;1661;53.572;10.174;2024-01-15T08:50:06;3.80;85.90
3298;DHT22;1661;53.572;10.174;2024-01-15T08:52:35;3.80;85.80
3298;DHT22;1661;53.572;10.174;2024-01-15T08:55:03;3.70;86.00
3298;DHT22;1661;53.572;10.174;2024-01-15T08:57:32;3.70;86.10
3298;DHT22;1661;53.572;10.174;2024-01-15T09:00:00;3.60;86.40
3298;DHT22;1661;53.572;10.174;2024-01-15T09:02:29;3.50;87.10
3298;DHT22;1661;53.572;10.174;2024-01-15T09:04:56;3.40;87.50
3298;DHT22;1661;53.572;10.174;2024-01-15T09:07:25;3.50;87.90
3298;DHT22;1661;53.572;10.174;2024-01-15T09:09:52;3.50;88.00
3298;DHT22;1661;53.572;10.174;2024-01-15T09:12:21;3.50;87.90
3298;DHT22;1661;53.572;10.174;2024-01-15T09:14:48;3.40;88.00
3298;DHT22;1661;53.572;10.174;2024-01-15T09:17:17;3.30;88.10
3298;DHT22;1661;53.572;10.174;2024-01-15T09:19:44;3.20;88.50
3298;DHT22;1661;53.572;10.174;2024-01-15T09:22:12;3.20;88.90
3298;DHT22;1661;53.572;10.174;2024-01-15T09:24:40;3.10;89.60
3298;DHT22;1661;53.572;10.174;2024-01-15T09:27:07;3.10;89.80
3298;DHT22;1661;53.572;10.174;2024-01-15T09:29:34;3.10;89.70
3298;DHT22;1661;53.572;10.174;2024-01-15T09:32:03;3.10;89.80
3298;DHT22;1661;53.572;10.174;2024-01-15T09:34:31;3.10;90.20
3298;DHT22;1661;53.572;10.174;2024-01-15T09:36:58;3.00;90.50
3298;DHT22;1661;53.572;10.174;2024-01-15T09:39:25;3.00;90.80
3298;DHT22;1661;53.572;10.174;2024-01-15T09:41:52;3.10;91.00
3298;DHT22;1661;53.572;10.174;2024-01-15T09:44:20;3.20;91.00
3298;DHT22;1661;53.572;10.174;2024-01-15T09:46:50;3.20;90.90
3298;DHT22;1661;53.572;10.174;2024-01-15T09:49:18;3.20;90.80
3298;DHT22;1661;53.572;10.174;2024-01-15T09:51:47;3.30;90.70
3298;DHT22;1661;53.572;10.174;2024-01-15T09:54:17;3.30;90.70
3298;DHT22;1661;53.572;10.174;2024-01-15T09:56:47;3.30;90.60
3298;DHT22;1661;53.572;10.174;2024-01-15T09:59:15;3.30;90.60
3298;DHT22;1661;53.572;10.174;2024-01-15T10:01:44;3.30;90.50
3298;DHT22;1661;53.572;10.174;2024-01-15T10:04:13;3.30;90.60
3298;DHT22;1661;53.572;10.174;2024-01-15T10:06:43;3.30;90.50
3298;DHT22;1661;53.572;10.174;2024-01-15T10:09:13;3.30;90.60
3298;DHT22;1661;53.572;10.174;2024-01-15T10:11:41;3.20;90.60
3298;DHT22;1661;53.572;10.174;2024-01-15T10:14:08;3.20;90.50
3298;DHT22;1661;53.572;10.174;2024-01-15T10:16:38;3.20;90.60
3298;DHT22;1661;53.572;10.174;2024-01-15T10:19:04;3.20;90.70
3298;DHT22;1661;53.572;10.174;2024-01-15T10:21:32;3.20;90.70
3298;DHT22;1661;53.572;10.174;2024-01-15T10:24:00;3.10;90.60
3298;DHT22;1661;53.572;10.174;2024-01-15T10:26:29;3.10;90.50
3298;DHT22;1661;53.572;10.174;2024-01-15T10:28:58;3.00;90.50
3298;DHT22;1661;53.572;10.174;2024-01-15T10:31:25;3.10;90.80
3298;DHT22;1661;53.572;10.174;2024-01-15T10:33:52;3.00;90.40
3298;DHT22;1661;53.572;10.174;2024-01-15T10:36:19;3.00;91.00
3298;DHT22;1661;53.572;10.174;2024-01-15T10:38:46;2.90;90.90
3298;DHT22;1661;53.572;10.174;2024-01-15T10:41:13;2.80;91.40
3298;DHT22;1661;53.572;10.174;2024-01-15T10:43:42;3.00;91.70
3298;DHT22;1661;53.572;10.174;2024-01-15T10:46:10;2.90;91.80
3298;DHT22;1661;53.572;10.174;2024-01-15T10:48:37;3.00;91.80
3298;DHT22;1661;53.572;10.174;2024-01-15T10:51:05;3.20;91.80
3298;DHT22;1661;53.572;10.174;2024-01-15T10:53:37;3.20;91.30
3298;DHT22;1661;53.572;10.174;2024-01-15T10:56:06;3.30;91.20
3298;DHT22;1661;53.572;10.174;2024-01-15T10:58:39;3.20;91.10
3298;DHT22;1661;53.572;10.174;2024-01-15T11:01:08;3.40;91.20
3298;DHT22;1661;53.572;10.174;2024-01-15T11:03:35;3.50;90.90
3298;DHT22;1661;53.572;10.174;2024-01-15T11:06:02;3.50;90.70
3298;DHT22;1661;53.572;10.174;2024-01-15T11:08:30;3.60;90.50
3298;DHT22;1661;53.572;10.174;2024-01-15T11:10:57;3.50;89.90
3298;DHT22;1661;53.572;10.174;2024-01-15T11:13:40;3.50;90.10
3298;DHT22;1661;53.572;10.174;2024-01-15T11:16:12;3.40;90.20
3298;DHT22;1661;53.572;10.174;2024-01-15T11:18:40;3.40;90.30
3298;DHT22;1661;53.572;10.174;2024-01-15T11:21:23;3.40;90.40
3298;DHT22;1661;53.572;10.174;2024-01-15T11:23:52;3.40;90.60
3298;DHT22;1661;53.572;10.174;2024-01-15T11:26:34;3.40;90.50
3298;DHT22;1661;53.572;10.174;2024-01-15T11:29:02;3.20;90.60
3298;DHT22;1661;53.572;10.174;2024-01-15T11:31:58;3.20;91.10
3298;DHT22;1661;53.572;10.174;2024-01-15T11:34:51;3.30;91.40
3298;DHT22;1661;53.572;10.174;2024-01-15T11:37:18;3.40;91.40
3298;DHT22;1661;53.572;10.174;2024-01-15T11:39:45;3.40;90.70
3298;DHT22;1661;53.572;10.174;2024-01-15T11:42:13;3.40;90.80
3298;DHT22;1661;53.572;10.174;2024-01-15T11:44:41;3.40;90.80
3298;DHT22;1661;53.572;10.174;2024-01-15T11:47:10;3.50;90.80
3298;DHT22;1661;53.572;10.174;2024-01-15T11:50:09;3.30;90.70
3298;DHT22;1661;53.572;10.174;2024-01-15T11:52:46;3.40;91.10
3298;DHT22;1661;53.572;10.174;2024-01-15T11:55:19;3.40;90.70
3298;DHT22;1661;53.572;10.174;2024-01-15T11:57:50;3.50;90.90
3298;DHT22;1661;53.572;10.174;2024-01-15T12:00:18;3.60;90.90
3298;DHT22;1661;53.572;10.174;2024-01-15T12:02:47;3.70;91.00
3298;DHT22;1661;53.572;10.174;2024-01-15T12:05:15;3.80;91.00
3298;DHT22;1661;53.572;10.174;2024-01-15T12:07:43;3.90;90.60
3298;DHT22;1661;53.572;10.174;2024-01-15T12:10:11;4.00;90.50
3298;DHT22;1661;53.572;10.174;2024-01-15T12:12:51;4.10;90.40
3298;DHT22;1661;53.572;10.174;2024-01-15T12:15:20;4.10;90.00
3298;DHT22;1661;53.572;10.174;2024-01-15T12:17:48;4.10;89.70
3298;DHT22;1661;53.572;10.174;2024-01-15T12:20:15;4.00;88.90
3298;DHT22;1661;53.572;10.174;2024-01-15T12:22:43;4.00;89.10
3298;DHT22;1661;53.572;10.174;2024-01-15T12:25:10;4.10;89.20
3298;DHT22;1661;53.572;10.174;2024-01-15T12:27:37;4.20;88.80
3298;DHT22;1661;53.572;10.174;2024-01-15T12:30:05;4.10;88.20
3298;DHT22;1661;53.572;10.174;2024-01-15T12:32:32;4.10;88.00
3298;DHT22;1661;53.572;10.174;2024-01-15T12:35:02;4.10;87.60
3298;DHT22;1661;53.572;10.174;2024-01-15T12:37:30;4.00;87.20
3298;DHT22;1661;53.572;10.174;2024-01-15T12:39:58;4.00;87.30
3298;DHT22;1661;53.572;10.174;2024-01-15T12:42:25;4.00;87.40
3298;DHT22;1661;53.572;10.174;2024-01-15T12:44:56;4.00;87.60
3298;DHT22;1661;53.572;10.174;2024-01-15T12:47:23;4.00;87.50
3298;DHT22;1661;53.572;10.174;2024-01-15T12:49:51;3.90;87.70
3298;DHT22;1661;53.572;10.174;2024-01-15T12:52:21;3.90;87.80
3298;DHT22;1661;53.572;10.174;2024-01-15T12:54:48;3.80;87.80
3298;DHT22;1661;53.572;10.174;2024-01-15T12:57:15;3.90;87.80
3298;DHT22;1661;53.572;10.174;2024-01-15T12:59:42;3.90;87.80
3298;DHT22;1661;53.572;10.174;2024-01-15T13:02:09;4.00;87.70
3298;DHT22;1661;53.572;10.174;2024-01-15T13:04:39;3.90;87.40
3298;DHT22;1661;53.572;10.174;2024-01-15T13:07:06;3.90;87.20
3298;DHT22;1661;53.572;10.174;2024-01-15T13:09:35;4.00;87.30
3298;DHT22;1661;53.572;10.174;2024-01-15T13:12:02;4.00;87.30
3298;DHT22;1661;53.572;10.174;2024-01-15T13:14:29;4.10;86.60
3298;DHT22;1661;53.572;10.174;2024-01-15T13:16:56;4.10;86.60
3298;DHT22;1661;53.572;10.174;2024-01-15T13:19:24;4.10;86.20
3298;DHT22;1661;53.572;10.174;2024-01-15T13:21:51;4.10;86.00
3298;DHT22;1661;53.572;10.174;2024-01-15T13:24:18;4.10;85.50
3298;DHT22;1661;53.572;10.174;2024-01-15T13:26:47;4.10;85.30
3298;DHT22;1661;53.572;10.174;2024-01-15T13:29:13;4.10;84.90
3298;DHT22;1661;53.572;10.174;2024-01-15T13:31:40;4.10;84.80
3298;DHT22;1661;53.572;10.174;2024-01-15T13:34:07;4.10;84.90
3298;DHT22;1661;53.572;10.174;2024-01-15T13:36:34;4.20;84.90
3298;DHT22;1661;53.572;10.174;2024-01-15T13:39:04;4.10;84.50
3298;DHT22;1661;53.572;10.174;2024-01-15T13:41:34;4.10;84.70
3298;DHT22;1661;53.572;10.174;2024-01-15T13:44:02;4.00;84.70
3298;DHT22;1661;53.572;10.174;2024-01-15T13:46:29;4.00;84.90
3298;DHT22;1661;53.572;10.174;2024-01-15T13:48:59;4.00;84.90
3298;DHT22;1661;53.572;10.174;2024-01-15T13:51:29;4.00;84.90
3298;DHT22;1661;53.572;10.174;2024-01-15T13:53:56;4.00;84.90
3298;DHT22;1661;53.572;10.174;2024-01-15T13:56:25;4.00;85.10
3298;DHT22;1661;53.572;10.174;2024-01-15T13:58:56;3.90;84.90
3298;DHT22;1661;53.572;10.174;2024-01-15T14:01:26;3.80;84.90
3298;DHT22;1661;53.572;10.174;2024-01-15T14:03:54;3.80;84.90
3298;DHT22;1661;53.572;10.174;2024-01-15T14:06:24;3.80;85.10
3298;DHT22;1661;53.572;10.174;2024-01-15T14:08:50;3.80;85.10
3298;DHT22;1661;53.572;10.174;2024-01-15T14:11:20;3.90;85.00
3298;DHT22;1661;53.572;10.174;2024-01-15T14:13:47;3.90;84.80
3298;DHT22;1661;53.572;10.174;2024-01-15T14:16:13;3.90;84.60
3298;DHT22;1661;53.572;10.174;2024-01-15T14:18:44;3.90;84.60
3298;DHT22;1661;53.572;10.174;2024-01-15T14:21:11;3.90;84.80
3298;DHT22;1661;53.572;10.174;2024-01-15T14:23:38;3.80;84.50
3298;DHT22;1661;53.572;10.174;2024-01-15T14:26:05;3.70;84.40
3298;DHT22;1661;53.572;10.174;2024-01-15T14:28:32;3.70;84.50
3298;DHT22;1661;53.572;10.174;2024-01-15T14:30:58;3.70;84.40
3298;DHT22;1661;53.572;10.174;2024-01-15T14:33:26;3.70;84.30
3298;DHT22;1661;53.572;10.174;2024-01-15T14:35:54;3.70;84.30
3298;DHT22;1661;53.572;10.174;2024-01-15T14:38:20;3.70;84.10
3298;DHT22;1661;53.572;10.174;2024-01-15T14:40:48;3.70;84.00
3298;DHT22;1661;53.572;10.174;2024-01-15T14:43:18;3.70;83.80
3298;DHT22;1661;53.572;10.174;2024-01-15T14:45:45;3.70;83.70
3298;DHT22;1661;53.572;10.174;2024-01-15T14:48:12;3.70;83.40
3298;DHT22;1661;53.572;10.174;2024-01-15T14:50:39;3.60;82.60
3298;DHT22;1661;53.572;10.174;2024-01-15T14:53:07;3.50;82.50
3298;DHT22;1661;53.572;10.174;2024-01-15T14:55:34;3.50;82.60
3298;DHT22;1661;53.572;10.174;2024-01-15T14:58:01;3.60;82.80
3298;DHT22;1661;53.572;10.174;2024-01-15T15:00:28;3.60;82.80
3298;DHT22;1661;53.572;10.174;2024-01-15T15:02:55;3.50;82.30
3298;DHT22;1661;53.572;10.174;2024-01-15T15:05:21;3.40;82.70
3298;DHT22;1661;53.572;10.174;2024-01-15T15:07:51;3.40;83.10
3298;DHT22;1661;53.572;10.174;2024-01-15T15:10:20;3.50;83.20
3298;DHT22;1661;53.572;10.174;2024-01-15T15:12:46;3.50;83.40
3298;DHT22;1661;53.572;10.174;2024-01-15T15:15:13;3.50;83.60
3298;DHT22;1661;53.572;10.174;2024-01-15T15:17:42;3.60;83.60
3298;DHT22;1661;53.572;10.174;2024-01-15T15:20:09;3.60;83.60
3298;DHT22;1661;53.572;10.174;2024-01-15T15:22:36;3.60;83.70
3298;DHT22;1661;53.572;10.174;2024-01-15T15:25:03;3.50;83.70
3298;DHT22;1661;53.572;10.174;2024-01-15T15:27:35;3.50;83.50
3298;DHT22;1661;53.572;10.174;2024-01-15T15:30:02;3.40;83.70
3298;DHT22;1661;53.572;10.174;2024-01-15T15:32:29;3.30;83.70
3298;DHT22;1661;53.572;10.174;2024-01-15T15:34:58;3.20;84.10
3298;DHT22;1661;53.572;10.174;2024-01-15T15:37:25;3.10;84.30
3298;DHT22;1661;53.572;10.174;2024-01-15T15:39:58;3.10;84.50
3298;DHT22;1661;53.572;10.174;2024-01-15T15:42:27;3.20;84.80
3298;DHT22;1661;53.572;10.174;2024-01-15T15:44:55;3.10;84.80
3298;DHT22;1661;53.572;10.174;2024-01-15T15:47:22;3.20;84.90
3298;DHT22;1661;53.572;10.174;2024-01-15T15:49:52;3.20;84.90
3298;DHT22;1661;53.572;10.174;2024-01-15T15:52:19;3.20;84.80
3298;DHT22;1661;53.572;10.174;2024-01-15T15:54:46;3.20;84.80
3298;DHT22;1661;53.572;10.174;2024-01-15T15:57:13;3.20;84.80
3298;DHT22;1661;53.572;10.174;2024-01-15T15:59:40;3.20;84.80
3298;DHT22;1661;53.572;10.174;2024-01-15T16:02:08;3.10;84.80
3298;DHT22;1661;53.572;10.174;2024-01-15T16:04:35;3.10;84.80
3298;DHT22;1661;53.572;10.174;2024-01-15T16:07:01;3.00;84.40